createdAt,value
2023-10-29T00:00:30.113Z,0.43
2023-10-29T00:02:58.968Z,0.42
2023-10-29T00:05:27.078Z,0.39
2023-10-29T00:07:55.045Z,0.35
2023-10-29T00:10:23.062Z,0.42
2023-10-29T00:12:52.205Z,0.38
2023-10-29T00:15:22.292Z,0.36
2023-10-29T00:17:50.395Z,0.33
2023-10-29T00:20:18.431Z,0.37
2023-10-29T00:22:46.304Z,0.34
2023-10-29T00:25:14.056Z,0.37
2023-10-29T00:27:41.916Z,0.26
2023-10-29T00:30:12.094Z,0.26
2023-10-29T00:32:40.179Z,0.35
2023-10-29T00:35:08.645Z,0.28
2023-10-29T00:37:36.499Z,0.26
2023-10-29T00:40:05.362Z,0.22
2023-10-29T00:42:33.369Z,0.20
2023-10-29T00:45:01.387Z,0.18
2023-10-29T00:47:30.879Z,0.15
2023-10-29T00:49:58.717Z,0.18
2023-10-29T00:52:26.589Z,0.17
2023-10-29T00:54:54.463Z,0.19
2023-10-29T00:57:22.592Z,0.21
2023-10-29T00:59:50.428Z,0.20
2023-10-29T01:02:18.258Z,0.18
2023-10-29T01:04:47.638Z,0.17
2023-10-29T01:07:15.690Z,0.18
2023-10-29T01:09:45.113Z,0.18
2023-10-29T01:12:17.213Z,0.15
2023-10-29T01:14:45.530Z,0.11
2023-10-29T01:17:13.811Z,0.10
2023-10-29T01:19:41.544Z,0.12
2023-10-29T01:22:11.183Z,0.12
2023-10-29T01:24:39.931Z,0.11
2023-10-29T01:27:08.997Z,0.10
2023-10-29T01:29:36.993Z,0.09
2023-10-29T01:32:05.262Z,0.11
2023-10-29T01:34:33.309Z,0.10
2023-10-29T01:37:01.199Z,0.11
2023-10-29T01:39:30.384Z,0.11
2023-10-29T01:41:59.293Z,0.09
2023-10-29T01:44:27.310Z,0.08
2023-10-29T01:46:55.130Z,0.05
2023-10-29T01:49:22.996Z,0.05
2023-10-29T01:51:51.294Z,0.06
2023-10-29T01:54:19.096Z,0.07
2023-10-29T01:56:48.218Z,0.03
2023-10-29T01:59:16.648Z,0.05
2023-10-29T02:01:44.885Z,0.03
2023-10-29T02:04:13.090Z,0.05
2023-10-29T02:06:41.342Z,-0.01
2023-10-29T02:09:10.259Z,0.05
2023-10-29T02:11:39.193Z,0.05
2023-10-29T02:14:08.604Z,0.07
2023-10-29T02:16:36.466Z,0.08
2023-10-29T02:19:04.732Z,-0.06
2023-10-29T02:21:32.812Z,0.06
2023-10-29T02:24:02.544Z,0.05
2023-10-29T02:26:30.584Z,0.05
2023-10-29T02:28:58.430Z,0.05
2023-10-29T02:31:26.274Z,0.02
2023-10-29T02:33:54.615Z,0.11
2023-10-29T02:36:22.447Z,0.10
2023-10-29T02:38:50.342Z,0.10
2023-10-29T02:41:19.552Z,0.08
2023-10-29T02:43:47.340Z,0.08
2023-10-29T02:46:15.105Z,0.03
2023-10-29T02:48:42.999Z,0.03
2023-10-29T02:51:12.639Z,0.02
2023-10-29T02:53:40.644Z,0.03
2023-10-29T02:56:08.541Z,0.03
2023-10-29T02:58:37.866Z,0.00
2023-10-29T03:01:06.860Z,0.02
2023-10-29T03:03:35.078Z,0.00
2023-10-29T03:06:06.120Z,-0.01
2023-10-29T03:08:34.325Z,-0.10
2023-10-29T03:11:02.218Z,-0.02
2023-10-29T03:13:30.239Z,-0.01
2023-10-29T03:15:59.413Z,-0.02
2023-10-29T03:18:27.471Z,0.02
2023-10-29T03:20:55.517Z,-0.01
2023-10-29T03:23:25.232Z,-0.01
2023-10-29T03:25:53.231Z,-0.02
2023-10-29T03:28:21.460Z,-0.02
2023-10-29T03:30:49.341Z,-0.04
2023-10-29T03:33:18.644Z,-0.03
2023-10-29T03:35:49.093Z,-0.02
2023-10-29T03:38:17.011Z,-0.02
2023-10-29T03:40:44.896Z,-0.03
2023-10-29T03:43:12.701Z,-0.05
2023-10-29T03:45:40.460Z,-0.04
2023-10-29T03:48:08.266Z,-0.01
2023-10-29T03:50:37.435Z,-0.02
2023-10-29T03:53:05.200Z,-0.05
2023-10-29T03:55:34.194Z,-0.09
2023-10-29T03:58:02.062Z,-0.11
2023-10-29T04:00:29.906Z,-0.10
2023-10-29T04:02:57.905Z,-0.10
2023-10-29T04:05:25.627Z,-0.08
2023-10-29T04:07:54.919Z,-0.10
2023-10-29T04:10:22.747Z,-0.05
2023-10-29T04:12:50.635Z,-0.06
2023-10-29T04:15:18.359Z,-0.08
2023-10-29T04:17:48.293Z,-0.09
2023-10-29T04:20:16.216Z,-0.10
2023-10-29T04:22:44.408Z,-0.11
2023-10-29T04:25:13.714Z,-0.06
2023-10-29T04:27:41.646Z,-0.10
2023-10-29T04:30:10.446Z,-0.06
2023-10-29T04:32:38.404Z,-0.09
2023-10-29T04:35:07.565Z,-0.07
2023-10-29T04:37:35.500Z,-0.07
2023-10-29T04:40:04.377Z,-0.08
2023-10-29T04:42:33.528Z,-0.10
2023-10-29T04:45:01.228Z,-0.13
2023-10-29T04:47:29.183Z,-0.13
2023-10-29T04:49:57.175Z,-0.11
2023-10-29T04:52:25.478Z,-0.10
2023-10-29T04:54:53.286Z,-0.11
2023-10-29T04:57:22.505Z,-0.13
2023-10-29T04:59:53.442Z,-0.14
2023-10-29T05:02:23.132Z,-0.14
2023-10-29T05:04:52.119Z,-0.12
2023-10-29T05:07:20.880Z,-0.10
2023-10-29T05:09:49.766Z,-0.08
2023-10-29T05:12:18.502Z,-0.11
2023-10-29T05:14:47.800Z,-0.11
2023-10-29T05:17:17.621Z,-0.10
2023-10-29T05:19:46.371Z,-0.14
2023-10-29T05:22:14.352Z,-0.16
2023-10-29T05:24:45.212Z,-0.15
2023-10-29T05:27:13.219Z,-0.14
2023-10-29T05:29:41.086Z,-0.15
2023-10-29T05:32:09.047Z,-0.12
2023-10-29T05:34:38.236Z,-0.16
2023-10-29T05:37:06.092Z,-0.16
2023-10-29T05:39:33.939Z,-0.16
2023-10-29T05:42:01.753Z,-0.16
2023-10-29T05:44:29.575Z,-0.16
2023-10-29T05:46:57.352Z,-0.20
2023-10-29T05:49:25.219Z,-0.14
2023-10-29T05:51:54.344Z,-0.08
2023-10-29T05:54:22.200Z,-0.08
2023-10-29T05:56:49.943Z,-0.09
2023-10-29T05:59:17.742Z,-0.09
2023-10-29T06:01:45.600Z,-0.09
2023-10-29T06:04:13.484Z,-0.06
2023-10-29T06:06:41.425Z,-0.07
2023-10-29T06:09:23.303Z,-0.07
2023-10-29T06:11:53.936Z,-0.03
2023-10-29T06:14:24.055Z,0.00
2023-10-29T06:16:58.564Z,-0.03
2023-10-29T06:19:31.539Z,-0.06
2023-10-29T06:21:59.400Z,-0.08
2023-10-29T06:24:28.859Z,-0.12
2023-10-29T06:26:57.143Z,-0.15
2023-10-29T06:29:24.984Z,-0.17
2023-10-29T06:31:52.818Z,-0.21
2023-10-29T06:34:20.632Z,-0.62
2023-10-29T06:36:48.480Z,-0.19
2023-10-29T06:39:16.828Z,-0.13
2023-10-29T06:41:46.053Z,-0.09
2023-10-29T06:44:13.918Z,-0.04
2023-10-29T06:46:41.832Z,0.00
2023-10-29T06:49:10.040Z,0.04
2023-10-29T06:51:37.869Z,0.12
2023-10-29T06:54:06.282Z,0.15
2023-10-29T06:56:34.230Z,0.15
2023-10-29T06:59:03.440Z,0.15
2023-10-29T07:01:31.165Z,0.10
2023-10-29T07:03:59.032Z,0.09
2023-10-29T07:06:26.940Z,0.08
2023-10-29T07:08:54.827Z,0.11
2023-10-29T07:11:22.665Z,0.11
2023-10-29T07:13:50.452Z,0.09
2023-10-29T07:16:19.596Z,0.09
2023-10-29T07:18:47.400Z,0.02
2023-10-29T07:21:15.939Z,0.09
2023-10-29T07:23:44.010Z,0.02
2023-10-29T07:26:11.907Z,0.05
2023-10-29T07:28:39.659Z,0.04
2023-10-29T07:31:07.459Z,0.05
2023-10-29T07:33:36.631Z,0.07
2023-10-29T07:36:04.879Z,0.13
2023-10-29T07:38:32.800Z,0.18
2023-10-29T07:41:00.538Z,0.20
2023-10-29T07:43:28.252Z,0.24
2023-10-29T07:45:56.060Z,0.26
2023-10-29T07:48:23.871Z,0.35
2023-10-29T07:50:53.350Z,0.42
2023-10-29T07:53:21.495Z,0.49
2023-10-29T07:55:49.471Z,0.58
2023-10-29T07:58:17.205Z,0.78
2023-10-29T08:00:44.946Z,1.12
2023-10-29T08:03:12.844Z,1.48
2023-10-29T08:05:40.978Z,1.79
2023-10-29T08:08:10.227Z,2.03
2023-10-29T08:10:38.101Z,2.27
2023-10-29T08:13:07.064Z,2.47
2023-10-29T08:15:34.959Z,2.77
2023-10-29T08:18:02.877Z,2.91
2023-10-29T08:20:30.744Z,3.27
2023-10-29T08:22:58.579Z,3.90
2023-10-29T08:25:27.650Z,4.57
2023-10-29T08:27:55.473Z,4.62
2023-10-29T08:30:23.590Z,4.62
2023-10-29T08:32:51.460Z,4.33
2023-10-29T08:35:19.275Z,4.19
2023-10-29T08:37:47.237Z,4.48
2023-10-29T08:40:15.460Z,4.88
2023-10-29T08:42:45.044Z,5.78
2023-10-29T08:47:41.560Z,7.43
2023-10-29T08:50:10.544Z,8.04
2023-10-29T08:52:38.405Z,8.54
2023-10-29T08:55:08.055Z,9.08
2023-10-29T08:57:36.709Z,10.01
2023-10-29T09:00:07.422Z,10.45
2023-10-29T09:02:35.340Z,10.72
2023-10-29T09:05:03.346Z,10.84
2023-10-29T09:07:31.085Z,10.75
2023-10-29T09:09:59.774Z,11.10
2023-10-29T09:12:27.794Z,11.90
2023-10-29T09:14:56.161Z,11.58
2023-10-29T09:17:25.426Z,11.97
2023-10-29T09:19:53.258Z,12.10
2023-10-29T09:22:21.145Z,11.54
2023-10-29T09:24:50.030Z,10.36
2023-10-29T09:27:17.910Z,8.98
2023-10-29T09:29:45.722Z,8.28
2023-10-29T09:32:15.101Z,8.32
2023-10-29T09:34:44.223Z,8.42
2023-10-29T09:37:11.955Z,8.16
2023-10-29T09:39:39.755Z,8.05
2023-10-29T09:42:10.375Z,8.13
2023-10-29T09:44:41.635Z,7.93
2023-10-29T09:47:15.371Z,7.93
2023-10-29T09:49:45.296Z,7.73
2023-10-29T09:52:15.416Z,7.62
2023-10-29T09:54:43.264Z,7.19
2023-10-29T09:57:11.206Z,6.84
2023-10-29T09:59:39.009Z,6.55
2023-10-29T10:02:08.214Z,6.20
2023-10-29T10:04:39.574Z,6.08
2023-10-29T10:07:09.423Z,5.96
2023-10-29T10:09:53.604Z,5.60
2023-10-29T10:12:21.553Z,5.41
2023-10-29T10:14:50.821Z,5.33
2023-10-29T10:17:18.747Z,5.37
2023-10-29T10:19:46.527Z,5.33
2023-10-29T10:22:35.458Z,5.27
2023-10-29T10:25:03.229Z,5.29
2023-10-29T10:27:31.506Z,5.37
2023-10-29T10:29:59.322Z,5.53
2023-10-29T10:32:27.174Z,5.54
2023-10-29T10:34:57.032Z,5.67
2023-10-29T10:37:26.465Z,5.69
2023-10-29T10:39:55.291Z,5.69
2023-10-29T10:42:26.153Z,5.77
2023-10-29T10:44:57.029Z,5.70
2023-10-29T10:47:28.972Z,5.70
2023-10-29T10:49:57.507Z,5.67
2023-10-29T10:52:30.203Z,5.71
2023-10-29T10:54:58.138Z,5.65
2023-10-29T10:57:27.925Z,5.76
2023-10-29T11:00:00.803Z,5.74
2023-10-29T11:02:29.196Z,5.69
2023-10-29T11:04:58.842Z,5.47
2023-10-29T11:07:28.837Z,5.42
2023-10-29T11:09:56.960Z,5.50
2023-10-29T11:12:24.960Z,5.62
2023-10-29T11:15:13.684Z,5.80
2023-10-29T11:17:52.167Z,5.77
2023-10-29T11:20:56.346Z,6.04
2023-10-29T11:23:27.887Z,6.02
2023-10-29T11:26:22.303Z,6.07
2023-10-29T11:28:50.921Z,5.97
2023-10-29T11:31:20.141Z,6.04
2023-10-29T11:33:50.095Z,6.00
2023-10-29T11:36:31.898Z,5.73
2023-10-29T11:39:32.335Z,5.99
2023-10-29T11:42:00.979Z,5.93
2023-10-29T11:44:31.010Z,5.83
2023-10-29T11:47:06.301Z,5.73
2023-10-29T11:50:13.715Z,5.59
2023-10-29T11:52:44.986Z,5.41
2023-10-29T11:55:14.742Z,4.98
2023-10-29T11:57:48.323Z,4.95
2023-10-29T12:00:16.920Z,4.60
2023-10-29T12:02:48.237Z,4.46
2023-10-29T12:05:18.069Z,4.47
2023-10-29T12:07:46.761Z,4.36
2023-10-29T12:10:16.126Z,4.29
2023-10-29T12:12:53.774Z,4.31
2023-10-29T12:15:22.148Z,4.16
2023-10-29T12:17:50.045Z,4.37
2023-10-29T12:20:23.018Z,4.43
2023-10-29T12:22:55.978Z,4.46
2023-10-29T12:25:25.590Z,4.48
2023-10-29T12:27:53.744Z,4.43
2023-10-29T12:30:41.962Z,4.37
2023-10-29T12:33:24.007Z,4.44
2023-10-29T12:35:53.298Z,4.42
2023-10-29T12:38:22.445Z,4.47
2023-10-29T12:41:10.714Z,4.36
2023-10-29T12:43:39.874Z,4.35
2023-10-29T12:46:09.211Z,4.36
2023-10-29T12:48:38.625Z,4.16
2023-10-29T12:51:08.088Z,4.15
2023-10-29T12:53:36.016Z,4.10
2023-10-29T12:56:04.109Z,4.07
2023-10-29T12:58:33.213Z,4.03
2023-10-29T13:01:01.627Z,3.93
2023-10-29T13:03:30.116Z,4.00
2023-10-29T13:05:58.839Z,3.88
2023-10-29T13:08:26.990Z,3.91
2023-10-29T13:10:55.098Z,3.87
2023-10-29T13:13:24.660Z,3.84
2023-10-29T13:15:54.360Z,3.85
2023-10-29T13:18:22.208Z,3.89
2023-10-29T13:20:50.417Z,3.84
2023-10-29T13:23:18.488Z,3.80
2023-10-29T13:25:47.142Z,3.69
2023-10-29T13:28:15.412Z,3.68
2023-10-29T13:30:43.626Z,3.73
2023-10-29T13:33:12.897Z,3.79
2023-10-29T13:35:41.241Z,3.72
2023-10-29T13:38:09.585Z,3.69
2023-10-29T13:40:39.188Z,3.53
2023-10-29T13:43:07.408Z,3.78
2023-10-29T13:45:35.318Z,3.76
2023-10-29T13:48:05.632Z,3.65
2023-10-29T13:50:38.778Z,3.64
2023-10-29T13:53:07.101Z,3.61
2023-10-29T13:55:35.194Z,3.58
2023-10-29T13:58:03.709Z,3.70
2023-10-29T14:00:32.280Z,3.61
2023-10-29T14:03:01.150Z,3.48
2023-10-29T14:05:29.448Z,3.51
2023-10-29T14:08:00.440Z,3.33
2023-10-29T14:10:28.224Z,3.36
2023-10-29T14:12:56.104Z,3.38
2023-10-29T14:15:23.899Z,3.34
2023-10-29T14:17:51.755Z,3.28
2023-10-29T14:20:19.561Z,3.24
2023-10-29T14:22:47.922Z,3.25
2023-10-29T14:25:18.914Z,3.26
2023-10-29T14:27:46.722Z,3.22
2023-10-29T14:30:15.330Z,3.23
2023-10-29T14:32:44.695Z,3.18
2023-10-29T14:35:12.972Z,3.16
2023-10-29T14:37:40.832Z,3.08
2023-10-29T14:40:09.924Z,3.10
2023-10-29T14:42:39.209Z,3.08
2023-10-29T14:45:07.924Z,3.12
2023-10-29T14:47:35.770Z,3.08
2023-10-29T14:50:03.886Z,3.08
2023-10-29T14:52:33.471Z,3.05
2023-10-29T14:55:01.297Z,2.93
2023-10-29T14:57:30.145Z,2.93
2023-10-29T14:59:59.695Z,2.85
2023-10-29T15:02:28.268Z,2.90
2023-10-29T15:04:56.571Z,2.84
2023-10-29T15:07:24.431Z,2.85
2023-10-29T15:09:52.452Z,2.80
2023-10-29T15:12:20.684Z,2.82
2023-10-29T15:14:48.951Z,2.76
2023-10-29T15:17:20.791Z,2.80
2023-10-29T15:19:52.527Z,2.76
2023-10-29T15:22:20.440Z,2.72
2023-10-29T15:24:49.045Z,2.77
2023-10-29T15:27:17.386Z,2.80
2023-10-29T15:29:47.489Z,2.86
2023-10-29T15:32:15.234Z,2.77
2023-10-29T15:34:44.535Z,2.71
2023-10-29T15:37:13.116Z,2.73
2023-10-29T15:39:41.651Z,2.71
2023-10-29T15:42:09.897Z,2.70
2023-10-29T15:44:37.729Z,2.63
2023-10-29T15:47:06.104Z,2.65
2023-10-29T15:49:33.830Z,2.67
2023-10-29T15:52:03.130Z,2.65
2023-10-29T15:54:32.428Z,2.71
2023-10-29T15:57:00.214Z,2.69
2023-10-29T15:59:27.947Z,2.65
2023-10-29T16:01:57.499Z,2.67
2023-10-29T16:04:26.867Z,2.70
2023-10-29T16:06:54.911Z,2.47
2023-10-29T16:09:24.372Z,2.70
2023-10-29T16:11:52.541Z,2.67
2023-10-29T16:14:21.341Z,2.64
2023-10-29T16:16:49.089Z,2.62
2023-10-29T16:19:17.238Z,2.59
2023-10-29T16:21:45.398Z,2.63
2023-10-29T16:24:13.592Z,2.61
2023-10-29T16:26:42.960Z,2.63
2023-10-29T16:29:13.087Z,2.64
2023-10-29T16:31:41.037Z,2.38
2023-10-29T16:34:09.282Z,2.64
2023-10-29T16:36:37.219Z,2.62
2023-10-29T16:39:05.255Z,2.60
2023-10-29T16:41:33.087Z,2.56
2023-10-29T16:44:02.655Z,2.52
2023-10-29T16:46:31.125Z,2.52
2023-10-29T16:49:01.026Z,2.44
2023-10-29T16:51:30.268Z,2.48
2023-10-29T16:53:58.200Z,2.48
2023-10-29T16:56:26.052Z,2.31
2023-10-29T16:58:53.841Z,2.39
2023-10-29T17:01:23.574Z,2.42
2023-10-29T17:03:52.271Z,2.34
2023-10-29T17:06:20.134Z,2.34
2023-10-29T17:08:48.375Z,2.27
2023-10-29T17:11:16.123Z,2.28
2023-10-29T17:13:43.868Z,2.29
2023-10-29T17:16:11.678Z,2.28
2023-10-29T17:18:40.866Z,2.40
2023-10-29T17:21:15.394Z,2.41
2023-10-29T17:23:43.527Z,2.46
2023-10-29T17:26:14.962Z,2.36
2023-10-29T17:28:42.723Z,2.35
2023-10-29T17:31:12.922Z,2.34
2023-10-29T17:33:42.528Z,2.37
2023-10-29T17:36:11.549Z,2.36
2023-10-29T17:38:40.142Z,2.35
2023-10-29T17:41:15.688Z,2.32
2023-10-29T17:43:43.486Z,2.30
2023-10-29T17:46:15.073Z,2.26
2023-10-29T17:48:45.037Z,2.26
2023-10-29T17:51:13.195Z,2.31
2023-10-29T17:53:42.434Z,2.33
2023-10-29T17:56:10.292Z,2.26
2023-10-29T17:58:38.226Z,2.44
2023-10-29T18:01:06.169Z,2.42
2023-10-29T18:03:34.206Z,2.46
2023-10-29T18:06:14.729Z,2.51
2023-10-29T18:08:44.085Z,2.47
2023-10-29T18:11:12.645Z,2.42
2023-10-29T18:13:40.807Z,2.43
2023-10-29T18:16:09.732Z,2.42
2023-10-29T18:18:37.748Z,2.36
2023-10-29T18:21:06.077Z,2.37
2023-10-29T18:23:35.173Z,2.45
2023-10-29T18:26:03.014Z,2.47
2023-10-29T18:28:31.868Z,2.49
2023-10-29T18:30:59.689Z,2.42
2023-10-29T18:33:32.555Z,2.55
2023-10-29T18:36:06.811Z,2.53
2023-10-29T18:38:36.080Z,2.63
2023-10-29T18:41:04.101Z,2.58
2023-10-29T18:43:31.812Z,2.66
2023-10-29T18:45:59.677Z,2.61
2023-10-29T18:48:27.635Z,2.54
2023-10-29T18:51:02.976Z,2.48
2023-10-29T18:53:30.778Z,2.44
2023-10-29T18:55:59.890Z,2.52
2023-10-29T18:58:27.986Z,2.55
2023-10-29T19:00:55.760Z,2.62
2023-10-29T19:03:24.190Z,2.50
2023-10-29T19:05:52.162Z,2.57
2023-10-29T19:08:19.937Z,2.64
2023-10-29T19:10:49.257Z,2.41
2023-10-29T19:13:18.482Z,2.64
2023-10-29T19:15:46.399Z,2.71
2023-10-29T19:18:14.514Z,2.67
2023-10-29T19:20:43.063Z,2.66
2023-10-29T19:23:10.923Z,2.61
2023-10-29T19:25:38.676Z,2.56
2023-10-29T19:28:06.400Z,2.61
2023-10-29T19:30:35.608Z,2.55
2023-10-29T19:33:04.110Z,2.60
2023-10-29T19:35:33.042Z,2.57
2023-10-29T19:38:01.855Z,2.55
2023-10-29T19:40:29.837Z,2.59
2023-10-29T19:42:57.745Z,2.60
2023-10-29T19:45:26.215Z,2.60
2023-10-29T19:47:55.433Z,2.63
2023-10-29T19:50:23.315Z,2.71
2023-10-29T19:52:51.226Z,2.71
2023-10-29T19:55:19.628Z,2.71
2023-10-29T19:57:49.222Z,2.67
2023-10-29T20:00:20.095Z,2.79
2023-10-29T20:02:48.159Z,2.77
2023-10-29T20:05:17.498Z,2.64
2023-10-29T20:07:45.450Z,2.82
2023-10-29T20:10:14.364Z,2.78
2023-10-29T20:12:42.429Z,2.84
2023-10-29T20:15:11.045Z,2.85
2023-10-29T20:17:38.845Z,2.84
2023-10-29T20:20:08.060Z,2.79
2023-10-29T20:22:37.301Z,2.79
2023-10-29T20:25:06.000Z,2.87
2023-10-29T20:27:34.021Z,2.84
2023-10-29T20:30:02.064Z,2.89
2023-10-29T20:32:29.883Z,2.94
2023-10-29T20:34:57.691Z,2.93
2023-10-29T20:37:25.914Z,2.92
2023-10-29T20:39:55.192Z,2.95
2023-10-29T20:42:23.003Z,2.92
2023-10-29T20:44:50.894Z,2.93
2023-10-29T20:47:19.104Z,2.96
2023-10-29T20:49:47.173Z,2.97
2023-10-29T20:52:17.518Z,2.91
2023-10-29T20:54:45.426Z,2.99
2023-10-29T20:57:14.623Z,3.00
2023-10-29T20:59:42.505Z,2.95
2023-10-29T21:02:10.276Z,2.94
2023-10-29T21:04:38.027Z,2.96
2023-10-29T21:07:05.852Z,2.98
2023-10-29T21:09:33.661Z,3.01
2023-10-29T21:12:01.609Z,3.01
2023-10-29T21:14:30.792Z,3.03
2023-10-29T21:16:58.563Z,3.03
2023-10-29T21:19:30.237Z,3.05
2023-10-29T21:21:58.520Z,3.05
2023-10-29T21:24:26.686Z,3.09
2023-10-29T21:26:56.300Z,3.05
2023-10-29T21:29:24.512Z,3.02
2023-10-29T21:31:53.644Z,3.03
2023-10-29T21:34:21.814Z,3.08
2023-10-29T21:36:49.699Z,3.05
2023-10-29T21:39:17.495Z,3.05
2023-10-29T21:41:46.921Z,3.04
2023-10-29T21:44:14.776Z,2.98
2023-10-29T21:46:42.580Z,3.02
2023-10-29T21:49:11.840Z,3.02
2023-10-29T21:51:39.548Z,3.00
2023-10-29T21:54:07.669Z,2.97
2023-10-29T21:56:35.551Z,2.92
2023-10-29T21:59:03.442Z,2.97
2023-10-29T22:01:31.361Z,2.91
2023-10-29T22:03:59.264Z,2.89
2023-10-29T22:06:28.794Z,2.91
2023-10-29T22:08:56.517Z,2.89
2023-10-29T22:11:24.331Z,2.93
2023-10-29T22:13:52.089Z,2.99
2023-10-29T22:16:20.428Z,2.75
2023-10-29T22:18:48.274Z,2.97
2023-10-29T22:21:16.159Z,2.94
2023-10-29T22:23:45.234Z,2.97
2023-10-29T22:26:12.989Z,2.99
2023-10-29T22:28:40.778Z,2.78
2023-10-29T22:31:08.703Z,3.01
2023-10-29T22:33:36.720Z,3.08
2023-10-29T22:36:06.273Z,3.08
2023-10-29T22:38:34.479Z,3.09
2023-10-29T22:41:04.812Z,3.01
2023-10-29T22:43:32.895Z,3.03
2023-10-29T22:46:01.005Z,2.99
2023-10-29T22:48:29.309Z,3.02
2023-10-29T22:50:57.564Z,3.00
2023-10-29T22:53:25.420Z,3.04
2023-10-29T22:55:53.173Z,3.02
2023-10-29T22:58:22.376Z,3.05
2023-10-29T23:00:50.295Z,3.09
2023-10-29T23:03:18.341Z,3.08
2023-10-29T23:05:46.504Z,3.06
2023-10-29T23:08:14.362Z,3.01
2023-10-29T23:10:42.125Z,2.98
2023-10-29T23:13:09.993Z,3.01
2023-10-29T23:15:39.266Z,3.00
2023-10-29T23:18:07.173Z,3.01
2023-10-29T23:20:35.114Z,3.01
2023-10-29T23:23:04.471Z,2.97
2023-10-29T23:25:32.229Z,3.01
2023-10-29T23:27:59.972Z,3.02
2023-10-29T23:30:27.960Z,3.01
2023-10-29T23:32:57.183Z,3.03
2023-10-29T23:35:24.943Z,3.00
2023-10-29T23:37:54.386Z,3.00
2023-10-29T23:40:25.014Z,2.99
2023-10-29T23:42:52.874Z,2.91
2023-10-29T23:45:20.694Z,3.00
2023-10-29T23:47:48.664Z,3.02
2023-10-29T23:50:17.862Z,2.98
2023-10-29T23:52:46.023Z,3.01
2023-10-29T23:55:16.631Z,2.96
2023-10-29T23:57:44.813Z,2.97
